Kezdőlap
METAR-TAF:

METAR-TAF

Repülőterek :

Zeltwegi katonai repülőtér

Zeltweg, Ausztria

földrajzi szélesség: 47-12N, földrajzi hosszúság: 014-45E, magasság: 677 m

Jelenlegi meteorológiai megfigyelések

A jelentés 44 perccel ezelõtt készült, 09:20 UTC
Kelet-északkeleti szél 3 kt
Hőmérséklet 18°C
Páratartalom 77%
Légköri nyomás 1022 hPa

METAR: LOXZ 280920Z 06003KT 20KM FEW015ST SCT300CI 18/14 Q1022 NOSIG

Idő: 12:04 (10:04 UTC)


TAF: hiányzik

Meteorológiai megfigyelések és előrejelzések több, mint 4000 repülőtéren (METAR és TAF jelentéseket).

A térképen piros és sárga pontok jelzik az elérhető meteorológiai állomásokat.

Mozgassa az egeret a pont fölött, hogy megjelenjen az állomás neve.

Azután kattintson az időjárási megfigyelések és előrejelzések megtekintéséhez.

A térkép megváltoztatása: kattintson a fekete keresztel jelölt zöld gombra ráközelítéshez, a vonallal jelölt zöld gombra távolításhoz, vagy a zöld nyilakra a szomszédos térképek eléréséhez.


METAR-TAF: